Time;durP1;ratioP1;P1;durP2;ratioP2;P2;SDS_P1;SDS_P2;PMS_P1;PMS_P2;Temp;Humidity;BMP_temperature;BMP_pressure;BME280_temperature;BME280_humidity;BME280_pressure;Samples;Min_cycle;Max_cycle;Signal;HPM_P1;HPM_P2
2020/01/26 00:01:24;;;;;;;38.3;27.8;;;;;;;3.1;93.67383;962.4592;;;;
2020/01/26 00:03:44;;;;;;;40.6;28.5;;;;;;;2.75;94.97363;962.3879;;;;
2020/01/26 00:06:09;;;;;;;37.5;26.9;;;;;;;2.82;94.76367;962.4222;;;;
2020/01/26 00:08:34;;;;;;;36;27.1;;;;;;;2.89;94.08984;962.4217;;;;
2020/01/26 00:10:59;;;;;;;38.6;28.4;;;;;;;2.87;93.91406;962.3873;;;;
2020/01/26 00:13:24;;;;;;;39;27.6;;;;;;;2.67;95.23828;962.381;;;;
2020/01/26 00:15:49;;;;;;;37.1;26.6;;;;;;;2.91;94.69531;962.3714;;;;
2020/01/26 00:18:14;;;;;;;33.1;24.8;;;;;;;2.85;94.47559;962.3792;;;;
2020/01/26 00:23:05;;;;;;;37.1;27.9;;;;;;;2.87;94.60547;962.3231;;;;
2020/01/26 00:25:30;;;;;;;38.1;27.1;;;;;;;2.88;94.13281;962.3055;;;;
2020/01/26 00:27:55;;;;;;;41.4;28.5;;;;;;;2.88;93.96387;962.2708;;;;
2020/01/26 00:30:20;;;;;;;45.2;30.1;;;;;;;2.8;94.68945;962.2606;;;;
2020/01/26 00:32:45;;;;;;;37;26.8;;;;;;;2.87;94.50391;962.1783;;;;
2020/01/26 00:35:10;;;;;;;33.2;24.9;;;;;;;2.91;94.32031;962.1855;;;;
2020/01/26 00:37:36;;;;;;;34.7;25.7;;;;;;;2.98;93.56738;962.1778;;;;
2020/01/26 00:40:01;;;;;;;34.2;25.1;;;;;;;2.94;93.62695;962.1998;;;;
2020/01/26 00:42:26;;;;;;;31.9;24.3;;;;;;;3.06;93.32422;962.2019;;;;
2020/01/26 00:44:52;;;;;;;32.1;23.4;;;;;;;3.03;93.44141;962.255;;;;
2020/01/26 00:47:17;;;;;;;31.7;23.4;;;;;;;3.08;93.09082;962.2138;;;;
2020/01/26 00:49:42;;;;;;;31.9;23.2;;;;;;;3;93.49414;962.1941;;;;
2020/01/26 00:52:07;;;;;;;30.7;22.6;;;;;;;2.94;94.13574;962.1348;;;;
2020/01/26 00:54:33;;;;;;;34.6;22.5;;;;;;;2.95;94.06934;962.1149;;;;
2020/01/26 00:56:58;;;;;;;32.2;23.1;;;;;;;2.96;94.11523;962.1121;;;;
2020/01/26 00:59:23;;;;;;;30.3;21.9;;;;;;;2.99;93.85156;962.1527;;;;
2020/01/26 01:01:48;;;;;;;27.6;21.2;;;;;;;3.01;94.00293;962.146;;;;
2020/01/26 01:04:13;;;;;;;29.6;21.3;;;;;;;3;93.97754;962.1183;;;;
2020/01/26 01:06:38;;;;;;;32.2;22.1;;;;;;;2.95;94.44336;962.1552;;;;
2020/01/26 01:09:16;;;;;;;26.7;20.6;;;;;;;2.96;94.40918;962.1297;;;;
2020/01/26 01:14:16;;;;;;;27.8;20.2;;;;;;;3.08;94.0293;962.1485;;;;
2020/01/26 01:16:19;;;;;;;27.7;20.7;;;;;;;3.1;93.87695;962.1558;;;;
2020/01/26 01:18:44;;;;;;;26.3;19.8;;;;;;;3.05;94.13672;962.0988;;;;
2020/01/26 01:21:10;;;;;;;31.1;21;;;;;;;3.1;94;962.1347;;;;
2020/01/26 01:23:35;;;;;;;28.5;20.5;;;;;;;3.2;93.52539;962.1516;;;;
2020/01/26 01:26:00;;;;;;;24.7;19.1;;;;;;;3.23;93.33887;962.1297;;;;
2020/01/26 01:28:25;;;;;;;26.6;20.1;;;;;;;3.17;93.64063;962.1663;;;;
2020/01/26 01:30:50;;;;;;;25.7;19.1;;;;;;;3.11;93.88867;962.1099;;;;
2020/01/26 01:33:15;;;;;;;25.1;18.9;;;;;;;3.18;93.78027;962.0575;;;;
2020/01/26 01:35:41;;;;;;;28.3;20.3;;;;;;;3.2;93.53516;962.0664;;;;
2020/01/26 01:38:06;;;;;;;26.5;19.4;;;;;;;3.2;93.33105;962.0609;;;;
2020/01/26 01:40:31;;;;;;;27.3;19.6;;;;;;;3.17;93.53125;962.063;;;;
2020/01/26 01:42:56;;;;;;;23.7;18.7;;;;;;;3.19;93.64844;962.0864;;;;
2020/01/26 01:45:21;;;;;;;28.9;19.3;;;;;;;3.24;93.46582;962.0567;;;;
2020/01/26 01:47:46;;;;;;;27.2;19.5;;;;;;;3.23;93.25977;962.0016;;;;
2020/01/26 01:50:11;;;;;;;27.4;19.4;;;;;;;3.23;93.72363;961.9476;;;;
2020/01/26 01:52:36;;;;;;;25.2;18.6;;;;;;;3.26;93.48145;961.9551;;;;
2020/01/26 01:55:02;;;;;;;25.6;19.9;;;;;;;3.19;93.80469;961.9638;;;;
2020/01/26 01:57:27;;;;;;;24.9;19.4;;;;;;;3.23;93.56543;961.9568;;;;
2020/01/26 01:59:55;;;;;;;27.2;20.4;;;;;;;3.34;92.97852;961.9102;;;;
2020/01/26 02:02:20;;;;;;;26.9;20.1;;;;;;;3.27;93.15723;961.8965;;;;
2020/01/26 02:04:43;;;;;;;28.8;20;;;;;;;3.26;93.50586;961.8502;;;;
2020/01/26 02:07:08;;;;;;;29.1;21.4;;;;;;;3.23;93.93848;961.878;;;;
2020/01/26 02:09:33;;;;;;;29.4;21.1;;;;;;;3.18;94.0625;961.8346;;;;
2020/01/26 02:11:59;;;;;;;26.9;20.2;;;;;;;3.17;94.27539;961.85;;;;
2020/01/26 02:14:24;;;;;;;26.3;20.6;;;;;;;3.21;94.00293;961.7886;;;;
2020/01/26 02:16:49;;;;;;;28;20.9;;;;;;;3.25;93.62598;961.7455;;;;
2020/01/26 02:19:14;;;;;;;28.3;21.5;;;;;;;3.32;93.50586;961.7093;;;;
2020/01/26 02:21:39;;;;;;;29.6;22;;;;;;;3.31;93.49316;961.7333;;;;
2020/01/26 02:24:04;;;;;;;27.3;21.5;;;;;;;3.27;93.69824;961.7097;;;;
2020/01/26 02:26:29;;;;;;;30.5;22.1;;;;;;;3.25;93.66016;961.6858;;;;
2020/01/26 02:28:54;;;;;;;28.7;21.6;;;;;;;3.31;93.39258;961.6842;;;;
2020/01/26 02:31:42;;;;;;;28.7;22.1;;;;;;;3.22;93.65234;961.6456;;;;
2020/01/26 02:38:36;;;;;;;28.5;20.4;;;;;;;3.18;94.1084;961.6156;;;;
2020/01/26 02:41:04;;;;;;;25.9;19.4;;;;;;;3.18;94.20996;961.5616;;;;
2020/01/26 02:43:25;;;;;;;29;20.1;;;;;;;3.05;94.40625;961.5186;;;;
2020/01/26 02:45:50;;;;;;;28.6;20.3;;;;;;;2.86;94.57031;961.5085;;;;
2020/01/26 02:48:15;;;;;;;29.9;20.4;;;;;;;2.81;95.12305;961.5168;;;;
2020/01/26 02:50:40;;;;;;;30.5;20.1;;;;;;;2.85;94.83691;961.5037;;;;
2020/01/26 02:53:05;;;;;;;30.6;19.9;;;;;;;2.67;95.53125;961.5237;;;;
2020/01/26 02:55:30;;;;;;;25.1;18.9;;;;;;;2.82;95.03516;961.512;;;;
2020/01/26 02:57:55;;;;;;;25.2;18.6;;;;;;;3.01;94.08203;961.5594;;;;
2020/01/26 03:00:20;;;;;;;25.3;19.1;;;;;;;2.98;94.00781;961.5031;;;;
2020/01/26 03:02:45;;;;;;;27.7;19.5;;;;;;;2.85;94.3623;961.4975;;;;
2020/01/26 03:05:10;;;;;;;30.4;20.2;;;;;;;2.72;95.12598;961.4913;;;;
2020/01/26 03:07:35;;;;;;;26.2;19.1;;;;;;;2.95;94.66895;961.4565;;;;
2020/01/26 03:10:00;;;;;;;28;19.3;;;;;;;2.87;94.58301;961.4247;;;;
2020/01/26 03:12:26;;;;;;;25.2;18.9;;;;;;;2.86;95.0791;961.4722;;;;
2020/01/26 03:14:50;;;;;;;28.7;20.5;;;;;;;2.8;94.89551;961.49;;;;
2020/01/26 03:17:15;;;;;;;25.6;18.3;;;;;;;3.03;94.51563;961.5258;;;;
2020/01/26 03:19:40;;;;;;;29.7;18.7;;;;;;;3.18;93.19141;961.5309;;;;
2020/01/26 03:22:06;;;;;;;24.6;18.3;;;;;;;3.28;92.51367;961.5481;;;;
2020/01/26 03:24:31;;;;;;;26.3;18.8;;;;;;;3.13;93.00098;961.5308;;;;
2020/01/26 03:26:56;;;;;;;26.3;18.2;;;;;;;3.23;92.57031;961.558;;;;
2020/01/26 03:29:21;;;;;;;23.9;17.6;;;;;;;3.15;93.31934;961.5229;;;;
2020/01/26 03:31:46;;;;;;;23.9;17.7;;;;;;;3.13;93.2041;961.5084;;;;
2020/01/26 03:34:11;;;;;;;24.6;18.2;;;;;;;3.16;93.3125;961.5275;;;;
2020/01/26 03:36:36;;;;;;;26.4;18.3;;;;;;;3.17;92.90723;961.5972;;;;
2020/01/26 03:39:02;;;;;;;24.9;17.9;;;;;;;3.16;92.99512;961.4882;;;;
2020/01/26 03:41:27;;;;;;;25.5;17.7;;;;;;;3.19;93.15039;961.4938;;;;
2020/01/26 03:43:52;;;;;;;24.4;17.8;;;;;;;3.19;93.16016;961.4324;;;;
2020/01/26 03:46:17;;;;;;;25.2;18.1;;;;;;;3.23;92.77148;961.4439;;;;
2020/01/26 03:48:42;;;;;;;25.6;18.3;;;;;;;3.24;92.61719;961.4359;;;;
2020/01/26 03:51:07;;;;;;;26;18.6;;;;;;;3.24;92.62891;961.3826;;;;
2020/01/26 03:53:33;;;;;;;25.4;18.5;;;;;;;3.18;92.52637;961.4194;;;;
2020/01/26 03:55:58;;;;;;;23.3;17.6;;;;;;;3.17;92.84082;961.4559;;;;
2020/01/26 03:58:23;;;;;;;27.1;18.6;;;;;;;3.03;93.91797;961.4867;;;;
2020/01/26 04:03:04;;;;;;;23.8;18.1;;;;;;;3.12;93.0332;961.4782;;;;
2020/01/26 04:05:25;;;;;;;26.5;19.6;;;;;;;3.14;92.61816;961.46;;;;
2020/01/26 04:07:51;;;;;;;27;19.4;;;;;;;3.02;93.11328;961.4799;;;;
2020/01/26 04:13:42;;;;;;;26;18;;;;;;;3.05;92.95117;961.4958;;;;
2020/01/26 04:15:10;;;;;;;22.9;17.8;;;;;;;3.08;92.7627;961.5588;;;;
2020/01/26 04:17:32;;;;;;;22.7;17.4;;;;;;;3.13;92.44629;961.5156;;;;
2020/01/26 04:21:42;;;;;;;24.8;17.8;;;;;;;3.1;92.38477;961.5005;;;;
2020/01/26 04:24:07;;;;;;;24.3;18.1;;;;;;;3.01;92.73633;961.4763;;;;
2020/01/26 04:26:32;;;;;;;22;17.2;;;;;;;3.05;92.54199;961.4921;;;;
2020/01/26 04:28:57;;;;;;;23.6;17.7;;;;;;;3.05;92.4834;961.5121;;;;
2020/01/26 04:31:23;;;;;;;22.9;17.5;;;;;;;3.01;92.66797;961.5272;;;;
2020/01/26 04:33:48;;;;;;;21.2;17.6;;;;;;;2.96;92.70215;961.51;;;;
2020/01/26 04:36:13;;;;;;;23.1;17.2;;;;;;;2.97;92.67188;961.5181;;;;
2020/01/26 04:38:38;;;;;;;26.3;18.6;;;;;;;2.9;92.98438;961.4675;;;;
2020/01/26 04:41:03;;;;;;;27.1;18.1;;;;;;;2.95;93.01855;961.5533;;;;
2020/01/26 04:43:28;;;;;;;24.8;17.3;;;;;;;3.03;92.55859;961.5033;;;;
2020/01/26 04:45:53;;;;;;;23.4;17.9;;;;;;;3.03;92.50488;961.5557;;;;
2020/01/26 04:48:18;;;;;;;24.9;18.3;;;;;;;3.12;92.48828;961.5352;;;;
2020/01/26 04:50:43;;;;;;;24.1;17.6;;;;;;;3.02;93.26953;961.5405;;;;
2020/01/26 04:53:08;;;;;;;22.7;17.3;;;;;;;3.1;92.84766;961.507;;;;
2020/01/26 04:55:34;;;;;;;24.7;17.6;;;;;;;3.1;92.88184;961.5375;;;;
2020/01/26 04:58:08;;;;;;;26;18.5;;;;;;;3.13;92.58008;961.5122;;;;
2020/01/26 05:00:24;;;;;;;27.5;19;;;;;;;3.11;92.65625;961.5545;;;;
2020/01/26 05:02:49;;;;;;;27.6;19.7;;;;;;;3.07;92.47852;961.519;;;;
2020/01/26 05:05:14;;;;;;;28.9;19.5;;;;;;;3.05;92.75879;961.557;;;;
2020/01/26 05:07:39;;;;;;;28.5;18.9;;;;;;;3.04;92.69629;961.5786;;;;
2020/01/26 05:10:04;;;;;;;28.7;19.8;;;;;;;2.98;92.50391;961.5637;;;;
2020/01/26 05:12:29;;;;;;;27.4;19.8;;;;;;;2.97;93.0791;961.5351;;;;
2020/01/26 05:14:54;;;;;;;28.6;19.4;;;;;;;3.03;92.83203;961.5324;;;;
2020/01/26 05:17:19;;;;;;;26.2;18.9;;;;;;;3.01;92.93945;961.5176;;;;
2020/01/26 05:19:45;;;;;;;27.8;19.8;;;;;;;3.05;92.75488;961.5201;;;;
2020/01/26 05:22:11;;;;;;;27.1;20.1;;;;;;;3.04;92.82129;961.532;;;;
2020/01/26 05:24:35;;;;;;;30.5;19.8;;;;;;;2.97;93.02246;961.5123;;;;
2020/01/26 05:27:00;;;;;;;27.2;19.6;;;;;;;2.97;93.02246;961.5577;;;;
2020/01/26 05:29:25;;;;;;;24.5;18.6;;;;;;;3.02;92.77148;961.5701;;;;
2020/01/26 05:31:50;;;;;;;24.8;18.3;;;;;;;3.03;92.68555;961.6395;;;;
2020/01/26 05:34:15;;;;;;;26.8;18.6;;;;;;;3;93.0166;961.6395;;;;
2020/01/26 05:36:41;;;;;;;24.6;18.6;;;;;;;3.04;92.77539;961.6591;;;;
2020/01/26 05:39:05;;;;;;;26.2;18.7;;;;;;;3.06;92.77051;961.6412;;;;
2020/01/26 05:41:30;;;;;;;25.3;19.5;;;;;;;3.06;92.97363;961.6749;;;;
2020/01/26 05:43:56;;;;;;;24.6;18.7;;;;;;;3.07;93.03223;961.7371;;;;
2020/01/26 05:46:21;;;;;;;26.4;18.9;;;;;;;3.05;93.12109;961.6392;;;;
2020/01/26 05:48:46;;;;;;;27.1;19.6;;;;;;;3.07;92.99902;961.6825;;;;
2020/01/26 05:51:11;;;;;;;26.8;19.2;;;;;;;2.99;93.33105;961.6967;;;;
2020/01/26 05:53:36;;;;;;;24.8;18.4;;;;;;;2.9;93.96777;961.7417;;;;
2020/01/26 05:56:01;;;;;;;26.1;19;;;;;;;2.95;93.92285;961.7006;;;;
2020/01/26 05:58:26;;;;;;;33;21.3;;;;;;;2.94;93.80762;961.7823;;;;
2020/01/26 06:00:51;;;;;;;29.6;21;;;;;;;2.92;94.28809;961.7536;;;;
2020/01/26 06:03:16;;;;;;;28.8;20.2;;;;;;;3.01;94.21777;961.7695;;;;
2020/01/26 06:05:41;;;;;;;29.8;20.2;;;;;;;2.9;94.39746;961.7161;;;;
2020/01/26 06:08:06;;;;;;;30.5;21.1;;;;;;;2.72;95.43066;961.7294;;;;
2020/01/26 06:10:31;;;;;;;29.3;19.9;;;;;;;2.89;94.76855;961.7972;;;;
2020/01/26 06:12:57;;;;;;;27.5;19.7;;;;;;;2.99;94.21387;961.7551;;;;
2020/01/26 06:15:22;;;;;;;26.8;19.1;;;;;;;3.12;93.76855;961.818;;;;
2020/01/26 06:17:47;;;;;;;27;18.8;;;;;;;3.15;93.28613;961.808;;;;
2020/01/26 06:20:12;;;;;;;24.9;19.2;;;;;;;3.18;93.27246;961.7985;;;;
2020/01/26 06:22:37;;;;;;;24.3;18.5;;;;;;;3.11;93.30078;961.8043;;;;
2020/01/26 06:25:02;;;;;;;24.1;18.3;;;;;;;3.25;92.83398;961.7631;;;;
2020/01/26 06:27:27;;;;;;;24.8;17.7;;;;;;;3.23;92.7373;961.7273;;;;
2020/01/26 06:29:53;;;;;;;22.9;17.2;;;;;;;3.3;92.4248;961.7327;;;;
2020/01/26 06:32:19;;;;;;;22.1;17.3;;;;;;;3.19;92.44922;961.7354;;;;
2020/01/26 06:34:44;;;;;;;23.5;17;;;;;;;3.17;92.76953;961.7025;;;;
2020/01/26 06:37:16;;;;;;;19.9;16.4;;;;;;;3.21;92.4873;961.6808;;;;
2020/01/26 06:42:24;;;;;;;24;17.2;;;;;;;3.09;93.21973;961.6685;;;;
2020/01/26 06:44:24;;;;;;;23.5;17.4;;;;;;;3.05;93.36621;961.7101;;;;
2020/01/26 06:46:50;;;;;;;23.7;17.7;;;;;;;3.03;93.56738;961.7247;;;;
2020/01/26 06:49:21;;;;;;;22.3;16.2;;;;;;;3.06;93.21191;961.7674;;;;
2020/01/26 06:51:40;;;;;;;23.1;16.8;;;;;;;3;93.03906;961.7722;;;;
2020/01/26 06:54:05;;;;;;;23.4;17.2;;;;;;;3;93.07324;961.8052;;;;
2020/01/26 06:56:30;;;;;;;23.6;16.8;;;;;;;3.08;92.79688;961.8373;;;;
2020/01/26 06:58:55;;;;;;;22.7;16.6;;;;;;;3.14;92.48047;961.8008;;;;
2020/01/26 07:01:20;;;;;;;24;17.3;;;;;;;3.08;92.45801;961.8145;;;;
2020/01/26 07:03:46;;;;;;;23.1;16.7;;;;;;;3.01;93.10938;961.7951;;;;
2020/01/26 07:06:11;;;;;;;21.5;16.3;;;;;;;3.09;92.66309;961.8148;;;;
2020/01/26 07:08:36;;;;;;;21.2;16.2;;;;;;;3.1;92.59961;961.8474;;;;
2020/01/26 07:11:01;;;;;;;22.3;16.9;;;;;;;3.07;92.8877;961.8299;;;;
2020/01/26 07:13:27;;;;;;;23.7;17.2;;;;;;;3.04;93.03809;961.8306;;;;
2020/01/26 07:15:52;;;;;;;22.7;16.3;;;;;;;3.16;92.70117;961.865;;;;
2020/01/26 07:18:17;;;;;;;24.4;17.6;;;;;;;3.3;92.23438;961.8601;;;;
2020/01/26 07:20:42;;;;;;;23.6;17.6;;;;;;;3.38;91.83203;961.933;;;;
2020/01/26 07:23:08;;;;;;;25;17.9;;;;;;;3.16;93.01855;961.902;;;;
2020/01/26 07:25:33;;;;;;;27.6;17.9;;;;;;;3.16;93.1875;961.8851;;;;
2020/01/26 07:30:27;;;;;;;27.5;18.7;;;;;;;3.14;93.19531;961.9253;;;;
2020/01/26 07:32:49;;;;;;;24.8;18.5;;;;;;;3.07;93.33789;961.915;;;;
2020/01/26 07:35:14;;;;;;;25.1;18.2;;;;;;;3.07;93.15723;961.8989;;;;
2020/01/26 07:37:39;;;;;;;25.6;18.3;;;;;;;2.95;93.79883;961.9308;;;;
2020/01/26 07:40:04;;;;;;;23.5;17.9;;;;;;;3.22;93.28125;961.8922;;;;
2020/01/26 07:42:29;;;;;;;25.2;17.4;;;;;;;3.31;92.83691;961.9054;;;;
2020/01/26 07:44:54;;;;;;;24.8;17.8;;;;;;;3.39;92.44629;961.8983;;;;
2020/01/26 07:47:20;;;;;;;26;18.3;;;;;;;3.17;92.92969;961.8577;;;;
2020/01/26 07:49:45;;;;;;;24.6;18.1;;;;;;;3.21;93.49414;961.7968;;;;
2020/01/26 07:52:10;;;;;;;26.5;18.8;;;;;;;3.29;93.06836;961.8672;;;;
2020/01/26 07:54:35;;;;;;;28;19;;;;;;;3.23;93.39551;961.8624;;;;
2020/01/26 07:57:00;;;;;;;26.8;19.1;;;;;;;3.22;93.55078;961.8782;;;;
2020/01/26 07:59:25;;;;;;;25.4;19.2;;;;;;;3.06;94.33105;961.884;;;;
2020/01/26 08:01:51;;;;;;;23.7;18.3;;;;;;;3.26;93.82031;961.8489;;;;
2020/01/26 08:04:16;;;;;;;26;19;;;;;;;3.13;93.61133;961.8674;;;;
2020/01/26 08:06:41;;;;;;;26.5;19;;;;;;;3.08;94.13184;961.8596;;;;
2020/01/26 08:09:06;;;;;;;24.4;18.2;;;;;;;3.3;93.47754;961.8856;;;;
2020/01/26 08:11:31;;;;;;;25.6;18.8;;;;;;;3.23;93.56543;961.826;;;;
2020/01/26 08:13:56;;;;;;;26.3;18.3;;;;;;;3.37;93.06348;961.8158;;;;
2020/01/26 08:16:22;;;;;;;23.9;18.8;;;;;;;3.42;92.83691;961.8419;;;;
2020/01/26 08:18:47;;;;;;;29.2;20.9;;;;;;;3.47;92.82422;961.8762;;;;
2020/01/26 08:21:12;;;;;;;26.2;19;;;;;;;3.57;92.56445;961.8655;;;;
2020/01/26 08:23:37;;;;;;;27;19.4;;;;;;;3.61;92.62891;961.8301;;;;
2020/01/26 08:26:03;;;;;;;28.3;19.1;;;;;;;3.76;92.11914;961.7712;;;;
2020/01/26 08:28:28;;;;;;;24.9;18.7;;;;;;;3.79;92.01074;961.7633;;;;
2020/01/26 08:35:49;;;;;;;25.6;18.9;;;;;;;4;91.37598;961.8279;;;;
2020/01/26 08:38:08;;;;;;;26.1;19;;;;;;;4.07;91.0166;961.7916;;;;
2020/01/26 08:40:33;;;;;;;24.4;18.8;;;;;;;4.16;91.15137;961.8504;;;;
2020/01/26 08:42:58;;;;;;;26;19.8;;;;;;;4.23;91.42578;961.8027;;;;
2020/01/26 08:45:23;;;;;;;25.8;19.7;;;;;;;4.26;91.05762;961.8468;;;;
2020/01/26 08:47:49;;;;;;;25.6;18.5;;;;;;;4.35;90.47852;961.8931;;;;
2020/01/26 08:50:14;;;;;;;26.7;19.6;;;;;;;4.37;90.25391;961.8851;;;;
2020/01/26 08:52:39;;;;;;;26.1;20.4;;;;;;;4.49;89.97266;961.8875;;;;
2020/01/26 08:55:05;;;;;;;27.2;21.5;;;;;;;4.59;89.68848;961.9257;;;;
2020/01/26 08:57:30;;;;;;;26.1;20.4;;;;;;;4.77;88.47559;961.9419;;;;
2020/01/26 08:59:55;;;;;;;26.3;18.7;;;;;;;4.69;89.40234;961.9133;;;;
2020/01/26 09:02:20;;;;;;;24.3;18.9;;;;;;;4.64;89.12109;961.9073;;;;
2020/01/26 09:04:45;;;;;;;26;19.1;;;;;;;4.51;89.41016;961.9437;;;;
2020/01/26 09:07:11;;;;;;;28.5;20.6;;;;;;;4.52;88.81055;961.8865;;;;
2020/01/26 09:09:36;;;;;;;30.5;24.1;;;;;;;4.65;89.46094;961.8776;;;;
2020/01/26 09:12:01;;;;;;;26.5;20.2;;;;;;;4.72;88.96777;961.8954;;;;
2020/01/26 09:14:26;;;;;;;27;19.3;;;;;;;4.79;88.79883;961.8759;;;;
2020/01/26 09:16:51;;;;;;;25.3;19.9;;;;;;;4.84;87.76367;961.9337;;;;
2020/01/26 09:19:16;;;;;;;27.1;19.6;;;;;;;4.83;88.26074;961.905;;;;
2020/01/26 09:21:41;;;;;;;28.3;20.6;;;;;;;4.87;88.29102;961.9164;;;;
2020/01/26 09:24:06;;;;;;;26.7;20.2;;;;;;;4.98;87.74902;961.8917;;;;
2020/01/26 09:26:31;;;;;;;28.1;20.2;;;;;;;4.96;87.58496;961.8808;;;;
2020/01/26 09:28:56;;;;;;;27.3;21.2;;;;;;;4.91;87.35742;961.8677;;;;
2020/01/26 09:31:22;;;;;;;31.7;22.6;;;;;;;4.58;88.67676;961.8667;;;;
2020/01/26 09:33:47;;;;;;;29.6;22.2;;;;;;;4.52;89.60352;961.8831;;;;
2020/01/26 09:36:12;;;;;;;26.8;20.4;;;;;;;4.93;87.9082;961.9078;;;;
2020/01/26 09:38:46;;;;;;;25.4;21;;;;;;;4.99;87.23828;961.8886;;;;
2020/01/26 09:41:02;;;;;;;28.1;21.2;;;;;;;5.13;86.59668;961.9353;;;;
2020/01/26 09:43:27;;;;;;;26;20.3;;;;;;;5.27;86.41016;961.9575;;;;
2020/01/26 09:45:53;;;;;;;28.6;21.7;;;;;;;5.1;86.83008;961.9196;;;;
2020/01/26 09:48:18;;;;;;;33.2;22.3;;;;;;;5.03;86.59961;961.9715;;;;
2020/01/26 09:50:44;;;;;;;26.5;21;;;;;;;5.13;87.13281;961.8983;;;;
2020/01/26 09:53:09;;;;;;;25.7;19.9;;;;;;;5.36;86.16602;961.9099;;;;
2020/01/26 09:55:34;;;;;;;30.6;21.8;;;;;;;5.15;85.73633;961.9081;;;;
2020/01/26 09:57:59;;;;;;;26.5;21;;;;;;;5.16;86.84082;961.9156;;;;
2020/01/26 10:00:24;;;;;;;31.1;22;;;;;;;5.45;85.29688;961.9113;;;;
2020/01/26 10:02:49;;;;;;;30.8;21.7;;;;;;;5.29;85.23145;961.9258;;;;
2020/01/26 10:05:14;;;;;;;30.8;21;;;;;;;5.28;85.61426;961.9417;;;;
2020/01/26 10:07:40;;;;;;;28;21.2;;;;;;;5.32;85.73633;961.9142;;;;
2020/01/26 10:10:05;;;;;;;29.9;21.4;;;;;;;5.52;84.32227;961.9092;;;;
2020/01/26 10:12:31;;;;;;;27.5;20.3;;;;;;;5.64;84.40234;961.8997;;;;
2020/01/26 10:18:54;;;;;;;26.7;20.3;;;;;;;5.66;83.44922;961.8416;;;;
2020/01/26 10:21:15;;;;;;;28.2;19.2;;;;;;;5.9;82.44922;961.8448;;;;
2020/01/26 10:24:08;;;;;;;24.8;18;;;;;;;5.96;81.98145;961.8401;;;;
2020/01/26 10:26:10;;;;;;;26.5;19;;;;;;;5.89;82.05078;961.7744;;;;
2020/01/26 10:28:54;;;;;;;23.7;17.9;;;;;;;5.98;81.00781;961.8049;;;;
2020/01/26 10:35:59;;;;;;;22.3;16.8;;;;;;;6.11;81.45215;961.7144;;;;
2020/01/26 10:38:08;;;;;;;24.2;17.4;;;;;;;6.23;80.54199;961.6536;;;;
2020/01/26 10:40:33;;;;;;;26.6;17.5;;;;;;;6.16;80.8252;961.6544;;;;
2020/01/26 10:42:58;;;;;;;25.3;17.3;;;;;;;6.17;81.49902;961.6697;;;;
2020/01/26 10:45:23;;;;;;;21.3;15.9;;;;;;;6.52;80.11719;961.6487;;;;
2020/01/26 10:47:48;;;;;;;25.1;17.5;;;;;;;6.6;80.25781;961.6262;;;;
2020/01/26 10:50:14;;;;;;;26.9;17.3;;;;;;;6.53;79.46875;961.6069;;;;
2020/01/26 10:52:39;;;;;;;22.7;16.3;;;;;;;6.49;79.46191;961.6144;;;;
2020/01/26 10:55:04;;;;;;;22;16.3;;;;;;;6.66;79.37988;961.5525;;;;
2020/01/26 10:57:29;;;;;;;23.8;17.1;;;;;;;6.69;79.36035;961.5349;;;;
2020/01/26 10:59:54;;;;;;;25.8;17.3;;;;;;;6.5;79.94141;961.5287;;;;
2020/01/26 11:02:19;;;;;;;19.5;16.1;;;;;;;6.65;79.17285;961.5344;;;;
2020/01/26 11:04:44;;;;;;;23.6;16.1;;;;;;;6.88;78.61133;961.4724;;;;
2020/01/26 11:07:09;;;;;;;22;16.5;;;;;;;6.87;77.55859;961.4531;;;;
2020/01/26 11:09:34;;;;;;;23.6;16.4;;;;;;;6.81;78.40234;961.4437;;;;
2020/01/26 11:11:59;;;;;;;26.6;16.9;;;;;;;6.71;77.88281;961.4597;;;;
2020/01/26 11:14:25;;;;;;;25.6;16.4;;;;;;;7.01;77.08203;961.383;;;;
2020/01/26 11:16:50;;;;;;;24.8;16.4;;;;;;;6.92;76.99707;961.3506;;;;
2020/01/26 11:19:15;;;;;;;28.3;15.7;;;;;;;6.89;76.13477;961.3219;;;;
2020/01/26 11:21:40;;;;;;;26.2;15.8;;;;;;;6.71;77.29102;961.3666;;;;
2020/01/26 11:24:05;;;;;;;22.5;15.4;;;;;;;6.82;76.58008;961.3311;;;;
2020/01/26 11:26:30;;;;;;;29;16.7;;;;;;;6.82;77.28613;961.2999;;;;
2020/01/26 11:28:56;;;;;;;23.2;15.3;;;;;;;7.06;77.98047;961.3594;;;;
2020/01/26 11:31:21;;;;;;;25.7;15.3;;;;;;;7.29;76.25098;961.2701;;;;
2020/01/26 11:33:46;;;;;;;23.9;14.4;;;;;;;7.2;76.5791;961.2542;;;;
2020/01/26 11:36:11;;;;;;;27.9;14.3;;;;;;;7.18;75.70801;961.2473;;;;
2020/01/26 11:41:07;;;;;;;23.9;13.7;;;;;;;7.2;75.17383;961.1926;;;;
2020/01/26 11:43:27;;;;;;;21.1;13.3;;;;;;;7.26;74.9209;961.1395;;;;
2020/01/26 11:45:52;;;;;;;19.5;12.9;;;;;;;7.47;75.62109;961.1758;;;;
2020/01/26 11:50:42;;;;;;;19.7;12.2;;;;;;;7.52;73.90332;961.1184;;;;
2020/01/26 11:53:07;;;;;;;23.4;12.5;;;;;;;7.48;73.09863;961.0483;;;;
2020/01/26 11:55:32;;;;;;;22.4;11.8;;;;;;;7.58;73.25293;961.0734;;;;
2020/01/26 11:57:57;;;;;;;18.5;11.6;;;;;;;7.65;72.94336;961.0894;;;;
2020/01/26 12:02:55;;;;;;;25.7;12.3;;;;;;;7.43;73.2959;961.0052;;;;
2020/01/26 12:05:22;;;;;;;26.6;12.7;;;;;;;7.53;72.47852;960.9289;;;;
2020/01/26 12:07:37;;;;;;;24.3;12.8;;;;;;;7.48;72.12793;960.9202;;;;
2020/01/26 12:10:08;;;;;;;21.8;12.2;;;;;;;7.62;71.83984;960.9091;;;;
2020/01/26 12:12:27;;;;;;;21;12.5;;;;;;;7.75;72.14844;960.9006;;;;
2020/01/26 12:14:52;;;;;;;20.2;11.3;;;;;;;7.93;70.75977;960.903;;;;
2020/01/26 12:17:24;;;;;;;23.9;12.7;;;;;;;7.73;71.58496;960.8569;;;;
2020/01/26 12:19:44;;;;;;;23.6;12;;;;;;;7.91;72.50781;960.8528;;;;
2020/01/26 12:23:57;;;;;;;24;11.8;;;;;;;7.95;70.83301;960.8514;;;;
2020/01/26 12:24:58;;;;;;;18;11.9;;;;;;;8.07;71.05859;960.7975;;;;
2020/01/26 12:26:58;;;;;;;17.9;11.1;;;;;;;8.24;70.90332;960.8207;;;;
2020/01/26 12:29:23;;;;;;;24.3;12.1;;;;;;;8.48;69.23633;960.7395;;;;
2020/01/26 12:31:48;;;;;;;21.7;12;;;;;;;8.29;70.16797;960.798;;;;
2020/01/26 12:34:13;;;;;;;25.5;13.2;;;;;;;8.18;70.62988;960.758;;;;
2020/01/26 12:36:38;;;;;;;20.7;12.3;;;;;;;7.95;70.68457;960.7606;;;;
2020/01/26 12:39:05;;;;;;;22.8;12.1;;;;;;;7.82;71.28027;960.673;;;;
2020/01/26 12:41:29;;;;;;;20.9;12.1;;;;;;;8.06;71.61719;960.6781;;;;
2020/01/26 12:43:54;;;;;;;23.6;11.6;;;;;;;8.32;71.13379;960.6924;;;;
2020/01/26 12:46:19;;;;;;;18.2;11.8;;;;;;;8.43;70.99121;960.6348;;;;
2020/01/26 12:48:44;;;;;;;19.2;11.2;;;;;;;8.57;69.72266;960.6292;;;;
2020/01/26 12:51:09;;;;;;;29.7;12.9;;;;;;;8.3;69.41211;960.6494;;;;
2020/01/26 12:53:34;;;;;;;22.1;11.8;;;;;;;8.32;70.99707;960.6348;;;;
2020/01/26 12:55:59;;;;;;;23.9;13.2;;;;;;;8.37;72.08203;960.6287;;;;
2020/01/26 12:58:24;;;;;;;22.1;12.5;;;;;;;8.5;69.57129;960.6014;;;;
2020/01/26 13:00:49;;;;;;;21.9;13;;;;;;;8.35;70.48633;960.6186;;;;
2020/01/26 13:03:14;;;;;;;22.7;13.4;;;;;;;8.38;71.22461;960.5781;;;;
2020/01/26 13:05:39;;;;;;;22;12.3;;;;;;;8.37;70.52441;960.5402;;;;
2020/01/26 13:08:05;;;;;;;25.2;13.4;;;;;;;8.39;71.05566;960.555;;;;
2020/01/26 13:10:30;;;;;;;20.9;12;;;;;;;8.42;72.02051;960.5801;;;;
2020/01/26 13:12:55;;;;;;;19.5;12.1;;;;;;;8.39;72.39258;960.6206;;;;
2020/01/26 13:15:20;;;;;;;24.6;11.7;;;;;;;8.23;71.49902;960.659;;;;
2020/01/26 13:17:45;;;;;;;21;10.9;;;;;;;8.08;72.20605;960.5829;;;;
2020/01/26 13:20:10;;;;;;;21.1;10.1;;;;;;;8.18;73.68555;960.5898;;;;
2020/01/26 13:22:35;;;;;;;20.5;10.6;;;;;;;8.28;71.20703;960.5862;;;;
2020/01/26 13:25:00;;;;;;;21;11;;;;;;;8.27;72.54492;960.5999;;;;
2020/01/26 13:27:25;;;;;;;21.7;11.2;;;;;;;8.27;71.48047;960.603;;;;
2020/01/26 13:29:50;;;;;;;21.4;11.3;;;;;;;8.15;71.64258;960.5549;;;;
2020/01/26 13:32:15;;;;;;;20;10.7;;;;;;;8.16;72.6084;960.5324;;;;
2020/01/26 13:34:41;;;;;;;19.6;10.4;;;;;;;8.26;72.17871;960.5438;;;;
2020/01/26 13:37:06;;;;;;;21.3;10.6;;;;;;;8.38;71.7959;960.5058;;;;
2020/01/26 13:39:31;;;;;;;21.8;11.2;;;;;;;8.38;71.4541;960.5126;;;;
2020/01/26 13:41:56;;;;;;;18.9;10.4;;;;;;;8.43;71.50684;960.5081;;;;
2020/01/26 13:44:21;;;;;;;24.4;11.7;;;;;;;8.19;70.96289;960.4943;;;;
2020/01/26 13:46:46;;;;;;;24.2;11.1;;;;;;;8.17;71.24805;960.4592;;;;
2020/01/26 13:49:11;;;;;;;25.4;11.8;;;;;;;7.85;72.0752;960.4867;;;;
2020/01/26 13:51:37;;;;;;;20.1;11.3;;;;;;;7.95;71.9082;960.4719;;;;
2020/01/26 13:54:01;;;;;;;22.9;11;;;;;;;8.19;72.0166;960.4107;;;;
2020/01/26 13:56:27;;;;;;;20.3;10.9;;;;;;;8.3;71.79492;960.4076;;;;
2020/01/26 13:58:52;;;;;;;19.9;11.1;;;;;;;8.41;71.03613;960.3577;;;;
2020/01/26 14:01:17;;;;;;;18.3;10.4;;;;;;;8.52;71.08691;960.3807;;;;
2020/01/26 14:03:42;;;;;;;22.7;11.7;;;;;;;8.38;70.47852;960.3953;;;;
2020/01/26 14:06:07;;;;;;;24.6;11.7;;;;;;;7.99;70.96484;960.3912;;;;
2020/01/26 14:08:33;;;;;;;20.9;10.4;;;;;;;8.24;70.99512;960.366;;;;
2020/01/26 14:10:58;;;;;;;21.9;10.6;;;;;;;8.36;71.15137;960.3687;;;;
2020/01/26 14:13:23;;;;;;;23;11.2;;;;;;;8.33;71.3877;960.3645;;;;
2020/01/26 14:15:48;;;;;;;20.5;10.6;;;;;;;8.35;71.53906;960.3669;;;;
2020/01/26 14:18:13;;;;;;;23.5;11.1;;;;;;;8.31;71.68066;960.3492;;;;
2020/01/26 14:20:40;;;;;;;23.4;10.9;;;;;;;8.43;71.77148;960.2914;;;;
2020/01/26 14:23:04;;;;;;;22.6;11.2;;;;;;;8.46;72.0498;960.3433;;;;
2020/01/26 14:25:29;;;;;;;19.5;10.6;;;;;;;8.62;70.78223;960.3301;;;;
2020/01/26 14:27:54;;;;;;;21.4;10.8;;;;;;;8.45;71.01855;960.3635;;;;
2020/01/26 14:30:19;;;;;;;19.5;11;;;;;;;8.52;71.24707;960.3303;;;;
2020/01/26 14:32:44;;;;;;;23.6;11.7;;;;;;;8.47;71.59473;960.3056;;;;
2020/01/26 14:35:09;;;;;;;22;12.9;;;;;;;8.49;72.06738;960.3052;;;;
2020/01/26 14:37:35;;;;;;;23.1;13.3;;;;;;;8.41;73.12988;960.3519;;;;
2020/01/26 14:40:00;;;;;;;21.5;12.9;;;;;;;8.33;73.26563;960.3062;;;;
2020/01/26 14:42:25;;;;;;;17;11.4;;;;;;;8.38;74.19043;960.2463;;;;